sensor_id;sensor_type;location;lat;lon;timestamp;pressure;altitude;pressure_sealevel;temperature;humidity
9839;BME280;4958;48.150;11.506;2022-09-09T00:00:18;95398.88;;;19.91;62.47
9839;BME280;4958;48.150;11.506;2022-09-09T00:02:50;95402.28;;;19.92;62.74
9839;BME280;4958;48.150;11.506;2022-09-09T00:05:25;95403.38;;;19.96;62.56
9839;BME280;4958;48.150;11.506;2022-09-09T00:07:58;95392.22;;;20.00;62.29
9839;BME280;4958;48.150;11.506;2022-09-09T00:10:28;95397.75;;;20.04;61.87
9839;BME280;4958;48.150;11.506;2022-09-09T00:13:01;95393.63;;;20.08;62.49
9839;BME280;4958;48.150;11.506;2022-09-09T00:15:37;95394.97;;;20.11;62.23
9839;BME280;4958;48.150;11.506;2022-09-09T00:18:11;95395.28;;;20.14;61.99
9839;BME280;4958;48.150;11.506;2022-09-09T00:20:45;95383.47;;;20.12;61.67
9839;BME280;4958;48.150;11.506;2022-09-09T00:23:19;95391.16;;;20.01;62.15
9839;BME280;4958;48.150;11.506;2022-09-09T00:25:54;95399.28;;;20.00;62.16
9839;BME280;4958;48.150;11.506;2022-09-09T00:28:25;95388.56;;;20.01;62.14
9839;BME280;4958;48.150;11.506;2022-09-09T00:30:53;95387.78;;;20.01;62.20
9839;BME280;4958;48.150;11.506;2022-09-09T00:33:23;95388.50;;;19.96;62.65
9839;BME280;4958;48.150;11.506;2022-09-09T00:35:51;95379.09;;;19.95;62.71
9839;BME280;4958;48.150;11.506;2022-09-09T00:38:23;95390.16;;;19.86;63.58
9839;BME280;4958;48.150;11.506;2022-09-09T00:40:52;95391.69;;;19.82;63.38
9839;BME280;4958;48.150;11.506;2022-09-09T00:43:28;95397.16;;;19.80;63.46
9839;BME280;4958;48.150;11.506;2022-09-09T00:46:10;95395.81;;;19.78;64.07
9839;BME280;4958;48.150;11.506;2022-09-09T00:48:46;95386.63;;;19.75;64.13
9839;BME280;4958;48.150;11.506;2022-09-09T00:51:24;95389.00;;;19.77;63.89
9839;BME280;4958;48.150;11.506;2022-09-09T00:54:10;95389.69;;;19.72;63.97
9839;BME280;4958;48.150;11.506;2022-09-09T00:56:46;95387.66;;;19.74;63.93
9839;BME280;4958;48.150;11.506;2022-09-09T00:59:23;95388.25;;;19.64;64.50
9839;BME280;4958;48.150;11.506;2022-09-09T01:01:53;95390.25;;;19.57;64.79
9839;BME280;4958;48.150;11.506;2022-09-09T01:04:27;95385.56;;;19.43;65.68
9839;BME280;4958;48.150;11.506;2022-09-09T01:07:02;95386.41;;;19.31;66.09
9839;BME280;4958;48.150;11.506;2022-09-09T01:09:35;95395.72;;;19.27;66.26
9839;BME280;4958;48.150;11.506;2022-09-09T01:12:11;95397.41;;;19.33;65.29
9839;BME280;4958;48.150;11.506;2022-09-09T01:14:42;95401.13;;;19.38;65.40
9839;BME280;4958;48.150;11.506;2022-09-09T01:17:15;95389.66;;;19.39;65.35
9839;BME280;4958;48.150;11.506;2022-09-09T01:19:58;95398.63;;;19.43;64.48
9839;BME280;4958;48.150;11.506;2022-09-09T01:22:34;95389.19;;;19.42;64.50
9839;BME280;4958;48.150;11.506;2022-09-09T01:25:18;95390.59;;;19.49;64.43
9839;BME280;4958;48.150;11.506;2022-09-09T01:27:49;95381.31;;;19.53;64.28
9839;BME280;4958;48.150;11.506;2022-09-09T01:30:18;95394.84;;;19.50;64.25
9839;BME280;4958;48.150;11.506;2022-09-09T01:32:46;95387.31;;;19.54;63.98
9839;BME280;4958;48.150;11.506;2022-09-09T01:35:24;95393.22;;;19.49;64.88
9839;BME280;4958;48.150;11.506;2022-09-09T01:37:55;95391.88;;;19.47;64.89
9839;BME280;4958;48.150;11.506;2022-09-09T01:40:22;95390.28;;;19.46;64.77
9839;BME280;4958;48.150;11.506;2022-09-09T01:42:50;95392.22;;;19.50;64.50
9839;BME280;4958;48.150;11.506;2022-09-09T01:45:17;95389.72;;;19.44;64.60
9839;BME280;4958;48.150;11.506;2022-09-09T01:47:45;95388.69;;;19.45;64.65
9839;BME280;4958;48.150;11.506;2022-09-09T01:50:15;95390.59;;;19.49;64.28
9839;BME280;4958;48.150;11.506;2022-09-09T01:52:43;95385.50;;;19.54;64.13
9839;BME280;4958;48.150;11.506;2022-09-09T01:55:10;95384.16;;;19.52;64.35
9839;BME280;4958;48.150;11.506;2022-09-09T01:57:42;95392.44;;;19.49;64.38
9839;BME280;4958;48.150;11.506;2022-09-09T02:00:16;95394.41;;;19.42;64.62
9839;BME280;4958;48.150;11.506;2022-09-09T02:02:48;95390.13;;;19.36;64.67
9839;BME280;4958;48.150;11.506;2022-09-09T02:05:28;95387.06;;;19.39;64.80
9839;BME280;4958;48.150;11.506;2022-09-09T02:08:05;95394.88;;;19.39;64.94
9839;BME280;4958;48.150;11.506;2022-09-09T02:10:37;95384.81;;;19.47;64.55
9839;BME280;4958;48.150;11.506;2022-09-09T02:13:10;95382.94;;;19.43;64.63
9839;BME280;4958;48.150;11.506;2022-09-09T02:15:43;95371.06;;;19.35;64.95
9839;BME280;4958;48.150;11.506;2022-09-09T02:18:13;95371.13;;;19.23;65.26
9839;BME280;4958;48.150;11.506;2022-09-09T02:20:43;95376.81;;;19.20;65.60
9839;BME280;4958;48.150;11.506;2022-09-09T02:23:11;95379.75;;;19.24;65.63
9839;BME280;4958;48.150;11.506;2022-09-09T02:25:40;95378.25;;;19.28;65.44
9839;BME280;4958;48.150;11.506;2022-09-09T02:28:09;95377.44;;;19.27;65.29
9839;BME280;4958;48.150;11.506;2022-09-09T02:30:38;95382.84;;;19.21;65.38
9839;BME280;4958;48.150;11.506;2022-09-09T02:33:07;95368.28;;;19.25;65.25
9839;BME280;4958;48.150;11.506;2022-09-09T02:35:35;95372.00;;;19.29;64.96
9839;BME280;4958;48.150;11.506;2022-09-09T02:38:07;95368.34;;;19.30;65.03
9839;BME280;4958;48.150;11.506;2022-09-09T02:40:34;95370.59;;;19.21;65.34
9839;BME280;4958;48.150;11.506;2022-09-09T02:43:00;95372.63;;;19.19;65.47
9839;BME280;4958;48.150;11.506;2022-09-09T02:45:36;95366.63;;;19.19;65.78
9839;BME280;4958;48.150;11.506;2022-09-09T02:48:14;95367.66;;;19.18;65.98
9839;BME280;4958;48.150;11.506;2022-09-09T02:50:48;95370.94;;;19.13;65.99
9839;BME280;4958;48.150;11.506;2022-09-09T02:53:24;95372.53;;;19.14;65.69
9839;BME280;4958;48.150;11.506;2022-09-09T02:55:57;95367.78;;;19.11;66.31
9839;BME280;4958;48.150;11.506;2022-09-09T02:58:25;95372.78;;;19.13;65.88
9839;BME280;4958;48.150;11.506;2022-09-09T03:00:52;95368.66;;;19.17;65.91
9839;BME280;4958;48.150;11.506;2022-09-09T03:03:20;95370.72;;;19.15;66.16
9839;BME280;4958;48.150;11.506;2022-09-09T03:05:47;95369.13;;;19.14;66.14
9839;BME280;4958;48.150;11.506;2022-09-09T03:08:14;95361.88;;;19.16;66.17
9839;BME280;4958;48.150;11.506;2022-09-09T03:10:40;95359.34;;;19.21;65.84
9839;BME280;4958;48.150;11.506;2022-09-09T03:13:07;95361.97;;;19.21;66.15
9839;BME280;4958;48.150;11.506;2022-09-09T03:15:34;95358.88;;;19.24;66.12
9839;BME280;4958;48.150;11.506;2022-09-09T03:18:01;95370.34;;;19.23;66.46
9839;BME280;4958;48.150;11.506;2022-09-09T03:20:30;95368.03;;;19.26;66.05
9839;BME280;4958;48.150;11.506;2022-09-09T03:22:58;95360.69;;;19.23;66.33
9839;BME280;4958;48.150;11.506;2022-09-09T03:25:25;95361.63;;;19.17;66.68
9839;BME280;4958;48.150;11.506;2022-09-09T03:27:54;95364.16;;;19.12;67.26
9839;BME280;4958;48.150;11.506;2022-09-09T03:30:21;95361.06;;;19.15;66.78
9839;BME280;4958;48.150;11.506;2022-09-09T03:32:48;95361.06;;;19.15;67.04
9839;BME280;4958;48.150;11.506;2022-09-09T03:35:14;95359.03;;;19.17;66.61
9839;BME280;4958;48.150;11.506;2022-09-09T03:37:43;95358.59;;;19.09;67.45
9839;BME280;4958;48.150;11.506;2022-09-09T03:40:10;95355.44;;;19.07;67.12
9839;BME280;4958;48.150;11.506;2022-09-09T03:42:37;95360.81;;;19.00;67.59
9839;BME280;4958;48.150;11.506;2022-09-09T03:45:04;95358.44;;;18.98;67.73
9839;BME280;4958;48.150;11.506;2022-09-09T03:47:31;95360.59;;;19.02;67.66
9839;BME280;4958;48.150;11.506;2022-09-09T03:49:58;95360.03;;;19.00;67.86
9839;BME280;4958;48.150;11.506;2022-09-09T03:52:24;95361.97;;;18.92;67.92
9839;BME280;4958;48.150;11.506;2022-09-09T03:54:53;95360.38;;;18.91;68.22
9839;BME280;4958;48.150;11.506;2022-09-09T03:57:20;95363.09;;;18.96;67.96
9839;BME280;4958;48.150;11.506;2022-09-09T03:59:47;95357.88;;;18.96;68.26
9839;BME280;4958;48.150;11.506;2022-09-09T04:02:13;95350.16;;;19.02;67.95
9839;BME280;4958;48.150;11.506;2022-09-09T04:04:40;95346.81;;;19.06;67.86
9839;BME280;4958;48.150;11.506;2022-09-09T04:07:07;95351.97;;;19.01;68.15
9839;BME280;4958;48.150;11.506;2022-09-09T04:09:33;95352.97;;;19.00;68.36
9839;BME280;4958;48.150;11.506;2022-09-09T04:12:02;95353.22;;;18.98;68.16
9839;BME280;4958;48.150;11.506;2022-09-09T04:14:29;95351.88;;;18.96;68.34
9839;BME280;4958;48.150;11.506;2022-09-09T04:16:55;95341.66;;;18.94;68.19
9839;BME280;4958;48.150;11.506;2022-09-09T04:19:22;95343.59;;;18.87;68.35
9839;BME280;4958;48.150;11.506;2022-09-09T04:21:48;95339.19;;;18.88;68.17
9839;BME280;4958;48.150;11.506;2022-09-09T04:24:16;95347.56;;;18.90;68.22
9839;BME280;4958;48.150;11.506;2022-09-09T04:26:43;95340.53;;;18.90;68.22
9839;BME280;4958;48.150;11.506;2022-09-09T04:29:11;95340.53;;;18.90;68.17
9839;BME280;4958;48.150;11.506;2022-09-09T04:31:38;95326.25;;;18.93;68.25
9839;BME280;4958;48.150;11.506;2022-09-09T04:34:07;95330.44;;;18.94;68.22
9839;BME280;4958;48.150;11.506;2022-09-09T04:36:33;95323.63;;;18.93;68.17
9839;BME280;4958;48.150;11.506;2022-09-09T04:39:00;95323.72;;;18.98;67.85
9839;BME280;4958;48.150;11.506;2022-09-09T04:41:26;95324.41;;;18.93;68.51
9839;BME280;4958;48.150;11.506;2022-09-09T04:43:53;95328.06;;;18.92;68.06
9839;BME280;4958;48.150;11.506;2022-09-09T04:46:21;95328.19;;;18.86;68.59
9839;BME280;4958;48.150;11.506;2022-09-09T04:48:48;95329.78;;;18.87;68.46
9839;BME280;4958;48.150;11.506;2022-09-09T04:51:16;95329.47;;;18.83;68.77
9839;BME280;4958;48.150;11.506;2022-09-09T04:53:42;95326.94;;;18.88;68.26
9839;BME280;4958;48.150;11.506;2022-09-09T04:56:10;95340.78;;;18.89;68.37
9839;BME280;4958;48.150;11.506;2022-09-09T04:58:38;95329.53;;;18.88;68.56
9839;BME280;4958;48.150;11.506;2022-09-09T05:01:08;95322.75;;;18.87;68.60
9839;BME280;4958;48.150;11.506;2022-09-09T05:03:36;95321.47;;;18.90;68.53
9839;BME280;4958;48.150;11.506;2022-09-09T05:06:07;95328.63;;;18.94;68.34
9839;BME280;4958;48.150;11.506;2022-09-09T05:08:35;95324.50;;;18.98;68.24
9839;BME280;4958;48.150;11.506;2022-09-09T05:11:02;95325.88;;;19.01;68.02
9839;BME280;4958;48.150;11.506;2022-09-09T05:13:29;95333.38;;;18.97;68.41
9839;BME280;4958;48.150;11.506;2022-09-09T05:15:56;95330.19;;;18.95;68.15
9839;BME280;4958;48.150;11.506;2022-09-09T05:18:23;95339.84;;;18.95;67.97
9839;BME280;4958;48.150;11.506;2022-09-09T05:20:50;95340.31;;;18.92;67.78
9839;BME280;4958;48.150;11.506;2022-09-09T05:23:18;95339.75;;;18.90;67.71
9839;BME280;4958;48.150;11.506;2022-09-09T05:25:54;95346.31;;;18.92;67.67
9839;BME280;4958;48.150;11.506;2022-09-09T05:28:22;95346.56;;;18.91;67.63
9839;BME280;4958;48.150;11.506;2022-09-09T05:30:55;95341.88;;;18.93;67.53
9839;BME280;4958;48.150;11.506;2022-09-09T05:33:22;95345.97;;;18.89;68.10
9839;BME280;4958;48.150;11.506;2022-09-09T05:35:55;95355.16;;;18.91;68.18
9839;BME280;4958;48.150;11.506;2022-09-09T05:38:22;95350.97;;;18.90;68.05
9839;BME280;4958;48.150;11.506;2022-09-09T05:40:50;95354.38;;;18.91;67.98
9839;BME280;4958;48.150;11.506;2022-09-09T05:43:17;95351.22;;;18.89;68.08
9839;BME280;4958;48.150;11.506;2022-09-09T05:45:43;95350.34;;;18.83;69.11
9839;BME280;4958;48.150;11.506;2022-09-09T05:48:13;95350.97;;;18.90;68.32
9839;BME280;4958;48.150;11.506;2022-09-09T05:50:40;95359.13;;;18.94;68.02
9839;BME280;4958;48.150;11.506;2022-09-09T05:53:09;95350.38;;;19.00;67.65
9839;BME280;4958;48.150;11.506;2022-09-09T05:55:37;95349.81;;;18.98;67.21
9839;BME280;4958;48.150;11.506;2022-09-09T05:58:04;95355.81;;;18.98;67.31
9839;BME280;4958;48.150;11.506;2022-09-09T06:00:30;95362.16;;;19.03;67.27
9839;BME280;4958;48.150;11.506;2022-09-09T06:02:57;95358.53;;;19.04;67.77
9839;BME280;4958;48.150;11.506;2022-09-09T06:05:23;95368.25;;;19.08;67.10
9839;BME280;4958;48.150;11.506;2022-09-09T06:07:52;95367.56;;;19.13;67.33
9839;BME280;4958;48.150;11.506;2022-09-09T06:10:20;95362.00;;;19.09;67.21
9839;BME280;4958;48.150;11.506;2022-09-09T06:12:46;95366.44;;;19.09;67.21
9839;BME280;4958;48.150;11.506;2022-09-09T06:15:13;95368.00;;;19.10;67.38
9839;BME280;4958;48.150;11.506;2022-09-09T06:17:39;95364.59;;;19.09;67.22
9839;BME280;4958;48.150;11.506;2022-09-09T06:20:07;95370.84;;;19.08;67.11
9839;BME280;4958;48.150;11.506;2022-09-09T06:22:34;95357.50;;;19.05;66.89
9839;BME280;4958;48.150;11.506;2022-09-09T06:25:01;95366.34;;;19.04;67.00
9839;BME280;4958;48.150;11.506;2022-09-09T06:27:28;95360.19;;;19.10;67.00
9839;BME280;4958;48.150;11.506;2022-09-09T06:29:55;95361.66;;;19.06;66.86
9839;BME280;4958;48.150;11.506;2022-09-09T06:32:21;95352.19;;;19.00;67.14
9839;BME280;4958;48.150;11.506;2022-09-09T06:34:48;95355.03;;;18.98;66.98
9839;BME280;4958;48.150;11.506;2022-09-09T06:37:15;95362.97;;;19.03;67.24
9839;BME280;4958;48.150;11.506;2022-09-09T06:39:41;95359.31;;;19.04;67.15
9839;BME280;4958;48.150;11.506;2022-09-09T06:42:08;95361.44;;;19.07;66.82
9839;BME280;4958;48.150;11.506;2022-09-09T06:44:36;95360.97;;;19.10;66.88
9839;BME280;4958;48.150;11.506;2022-09-09T06:47:02;95367.88;;;19.16;66.91
9839;BME280;4958;48.150;11.506;2022-09-09T06:49:29;95371.13;;;19.23;66.79
9839;BME280;4958;48.150;11.506;2022-09-09T06:51:55;95369.31;;;19.24;66.62
9839;BME280;4958;48.150;11.506;2022-09-09T06:54:22;95371.94;;;19.24;66.80
9839;BME280;4958;48.150;11.506;2022-09-09T06:56:48;95367.25;;;19.26;66.61
9839;BME280;4958;48.150;11.506;2022-09-09T06:59:15;95377.16;;;19.24;66.86
9839;BME280;4958;48.150;11.506;2022-09-09T07:01:43;95382.13;;;19.25;67.07
9839;BME280;4958;48.150;11.506;2022-09-09T07:04:10;95386.72;;;19.18;67.41
9839;BME280;4958;48.150;11.506;2022-09-09T07:06:40;95387.34;;;19.25;67.32
9839;BME280;4958;48.150;11.506;2022-09-09T07:09:09;95398.28;;;19.22;67.42
9839;BME280;4958;48.150;11.506;2022-09-09T07:11:38;95408.22;;;19.25;67.75
9839;BME280;4958;48.150;11.506;2022-09-09T07:14:05;95430.22;;;19.29;67.92
9839;BME280;4958;48.150;11.506;2022-09-09T07:16:32;95431.00;;;19.30;68.65
9839;BME280;4958;48.150;11.506;2022-09-09T07:18:59;95415.34;;;19.30;68.18
9839;BME280;4958;48.150;11.506;2022-09-09T07:21:29;95414.47;;;19.24;68.83
9839;BME280;4958;48.150;11.506;2022-09-09T07:23:55;95426.03;;;19.28;69.42
9839;BME280;4958;48.150;11.506;2022-09-09T07:26:24;95428.63;;;19.28;69.73
9839;BME280;4958;48.150;11.506;2022-09-09T07:28:51;95431.00;;;19.30;69.91
9839;BME280;4958;48.150;11.506;2022-09-09T07:31:20;95427.28;;;19.26;71.49
9839;BME280;4958;48.150;11.506;2022-09-09T07:33:47;95431.22;;;19.40;69.71
9839;BME280;4958;48.150;11.506;2022-09-09T07:36:17;95430.47;;;19.45;68.96
9839;BME280;4958;48.150;11.506;2022-09-09T07:38:48;95428.88;;;19.55;69.12
9839;BME280;4958;48.150;11.506;2022-09-09T07:41:18;95436.06;;;19.65;69.31
9839;BME280;4958;48.150;11.506;2022-09-09T07:43:46;95439.91;;;19.74;68.88
9839;BME280;4958;48.150;11.506;2022-09-09T07:46:14;95432.63;;;19.76;68.76
9839;BME280;4958;48.150;11.506;2022-09-09T07:48:43;95444.25;;;19.69;69.77
9839;BME280;4958;48.150;11.506;2022-09-09T07:51:12;95441.47;;;19.75;69.29
9839;BME280;4958;48.150;11.506;2022-09-09T07:53:44;95449.63;;;19.79;69.26
9839;BME280;4958;48.150;11.506;2022-09-09T07:56:13;95452.50;;;19.77;69.54
9839;BME280;4958;48.150;11.506;2022-09-09T07:58:42;95453.59;;;19.81;69.35
9839;BME280;4958;48.150;11.506;2022-09-09T08:01:12;95449.19;;;19.82;69.45
9839;BME280;4958;48.150;11.506;2022-09-09T08:03:39;95445.34;;;19.89;69.54
9839;BME280;4958;48.150;11.506;2022-09-09T08:06:07;95446.63;;;19.87;69.43
9839;BME280;4958;48.150;11.506;2022-09-09T08:08:35;95455.34;;;19.92;68.98
9839;BME280;4958;48.150;11.506;2022-09-09T08:11:06;95457.84;;;20.04;68.26
9839;BME280;4958;48.150;11.506;2022-09-09T08:13:34;95460.56;;;20.09;67.85
9839;BME280;4958;48.150;11.506;2022-09-09T08:16:06;95467.75;;;20.02;68.19
9839;BME280;4958;48.150;11.506;2022-09-09T08:18:33;95464.28;;;20.13;67.86
9839;BME280;4958;48.150;11.506;2022-09-09T08:21:07;95475.31;;;20.15;68.08
9839;BME280;4958;48.150;11.506;2022-09-09T08:23:34;95471.91;;;20.15;68.25
9839;BME280;4958;48.150;11.506;2022-09-09T08:26:09;95479.31;;;20.23;68.46
9839;BME280;4958;48.150;11.506;2022-09-09T08:28:36;95470.16;;;20.20;69.09
9839;BME280;4958;48.150;11.506;2022-09-09T08:31:10;95480.19;;;20.28;68.49
9839;BME280;4958;48.150;11.506;2022-09-09T08:33:38;95483.91;;;20.32;68.44
9839;BME280;4958;48.150;11.506;2022-09-09T08:36:08;95479.03;;;20.19;68.51
9839;BME280;4958;48.150;11.506;2022-09-09T08:38:35;95483.84;;;20.11;68.57
9839;BME280;4958;48.150;11.506;2022-09-09T08:41:14;95485.44;;;19.95;69.72
9839;BME280;4958;48.150;11.506;2022-09-09T08:43:44;95493.84;;;19.97;69.76
9839;BME280;4958;48.150;11.506;2022-09-09T08:46:18;95489.31;;;19.92;72.56
9839;BME280;4958;48.150;11.506;2022-09-09T08:48:52;95483.28;;;19.92;72.04
9839;BME280;4958;48.150;11.506;2022-09-09T08:51:24;95484.19;;;19.97;72.34
9839;BME280;4958;48.150;11.506;2022-09-09T08:53:52;95490.44;;;19.96;74.67
9839;BME280;4958;48.150;11.506;2022-09-09T08:56:24;95486.38;;;20.06;73.11
9839;BME280;4958;48.150;11.506;2022-09-09T08:58:52;95484.31;;;20.08;71.15
9839;BME280;4958;48.150;11.506;2022-09-09T09:04:32;95484.22;;;20.02;71.71
9839;BME280;4958;48.150;11.506;2022-09-09T09:07:08;95477.59;;;20.12;70.44
9839;BME280;4958;48.150;11.506;2022-09-09T09:09:45;95480.75;;;20.14;70.70
9839;BME280;4958;48.150;11.506;2022-09-09T09:12:18;95479.25;;;20.34;69.30
9839;BME280;4958;48.150;11.506;2022-09-09T09:14:46;95477.34;;;20.47;68.82
9839;BME280;4958;48.150;11.506;2022-09-09T09:17:14;95479.25;;;20.51;68.19
9839;BME280;4958;48.150;11.506;2022-09-09T09:19:43;95475.44;;;20.42;65.08
9839;BME280;4958;48.150;11.506;2022-09-09T09:22:17;95476.06;;;20.32;64.84
9839;BME280;4958;48.150;11.506;2022-09-09T09:24:51;95469.56;;;20.35;64.41
9839;BME280;4958;48.150;11.506;2022-09-09T09:27:25;95476.47;;;20.41;65.10
9839;BME280;4958;48.150;11.506;2022-09-09T09:29:56;95478.94;;;20.48;64.89
9839;BME280;4958;48.150;11.506;2022-09-09T09:32:24;95481.63;;;20.53;65.18
9839;BME280;4958;48.150;11.506;2022-09-09T09:34:51;95483.44;;;20.52;64.59
9839;BME280;4958;48.150;11.506;2022-09-09T09:37:25;95486.84;;;20.53;64.37
9839;BME280;4958;48.150;11.506;2022-09-09T09:39:53;95488.50;;;20.42;65.21
9839;BME280;4958;48.150;11.506;2022-09-09T09:42:22;95486.44;;;20.44;65.28
9839;BME280;4958;48.150;11.506;2022-09-09T09:44:48;95487.72;;;20.42;65.08
9839;BME280;4958;48.150;11.506;2022-09-09T09:47:18;95488.75;;;20.41;64.50
9839;BME280;4958;48.150;11.506;2022-09-09T09:49:51;95487.19;;;20.40;64.55
9839;BME280;4958;48.150;11.506;2022-09-09T09:52:22;95482.34;;;20.31;65.84
9839;BME280;4958;48.150;11.506;2022-09-09T09:54:49;95484.47;;;20.34;65.62
9839;BME280;4958;48.150;11.506;2022-09-09T09:57:22;95492.44;;;20.40;65.20
9839;BME280;4958;48.150;11.506;2022-09-09T10:00:00;95493.91;;;20.35;65.26
9839;BME280;4958;48.150;11.506;2022-09-09T10:02:37;95487.25;;;20.28;65.88
9839;BME280;4958;48.150;11.506;2022-09-09T10:05:05;95481.69;;;20.24;66.38
9839;BME280;4958;48.150;11.506;2022-09-09T10:07:33;95492.25;;;20.13;66.04
9839;BME280;4958;48.150;11.506;2022-09-09T10:09:59;95489.06;;;20.11;66.88
9839;BME280;4958;48.150;11.506;2022-09-09T10:12:35;95484.88;;;20.10;67.12
9839;BME280;4958;48.150;11.506;2022-09-09T10:15:22;95484.97;;;20.15;67.12
9839;BME280;4958;48.150;11.506;2022-09-09T10:17:55;95483.22;;;20.20;67.22
9839;BME280;4958;48.150;11.506;2022-09-09T10:20:32;95480.66;;;20.25;67.61
9839;BME280;4958;48.150;11.506;2022-09-09T10:23:15;95480.19;;;20.28;67.67
9839;BME280;4958;48.150;11.506;2022-09-09T10:26:12;95484.38;;;20.29;68.52
9839;BME280;4958;48.150;11.506;2022-09-09T10:28:56;95491.78;;;20.16;69.07
9839;BME280;4958;48.150;11.506;2022-09-09T10:31:34;95490.44;;;20.13;68.80
9839;BME280;4958;48.150;11.506;2022-09-09T10:34:14;95487.66;;;20.20;68.64
9839;BME280;4958;48.150;11.506;2022-09-09T10:36:47;95480.91;;;20.24;68.02
9839;BME280;4958;48.150;11.506;2022-09-09T10:39:27;95481.13;;;20.22;67.97
9839;BME280;4958;48.150;11.506;2022-09-09T10:42:04;95481.22;;;20.27;67.82
9839;BME280;4958;48.150;11.506;2022-09-09T10:44:42;95495.97;;;20.33;67.47
9839;BME280;4958;48.150;11.506;2022-09-09T10:47:26;95481.31;;;20.32;67.56
9839;BME280;4958;48.150;11.506;2022-09-09T10:50:09;95488.69;;;20.19;68.44
9839;BME280;4958;48.150;11.506;2022-09-09T10:52:45;95486.69;;;20.26;68.33
9839;BME280;4958;48.150;11.506;2022-09-09T10:55:18;95489.16;;;20.32;68.32
9839;BME280;4958;48.150;11.506;2022-09-09T10:57:47;95490.34;;;20.42;67.85
9839;BME280;4958;48.150;11.506;2022-09-09T11:00:17;95487.88;;;20.52;67.09
9839;BME280;4958;48.150;11.506;2022-09-09T11:02:49;95482.59;;;20.68;65.58
9839;BME280;4958;48.150;11.506;2022-09-09T11:05:20;95478.84;;;20.81;64.42
9839;BME280;4958;48.150;11.506;2022-09-09T11:07:49;95479.69;;;20.87;64.26
9839;BME280;4958;48.150;11.506;2022-09-09T11:10:23;95479.47;;;20.88;63.82
9839;BME280;4958;48.150;11.506;2022-09-09T11:12:54;95479.09;;;21.01;63.65
9839;BME280;4958;48.150;11.506;2022-09-09T11:15:28;95473.44;;;21.31;62.23
9839;BME280;4958;48.150;11.506;2022-09-09T11:17:59;95472.38;;;21.54;61.67
9839;BME280;4958;48.150;11.506;2022-09-09T11:20:27;95474.56;;;21.67;60.31
9839;BME280;4958;48.150;11.506;2022-09-09T11:22:57;95471.94;;;21.67;60.03
9839;BME280;4958;48.150;11.506;2022-09-09T11:25:31;95474.03;;;21.65;60.26
9839;BME280;4958;48.150;11.506;2022-09-09T11:28:15;95482.09;;;21.59;59.53
9839;BME280;4958;48.150;11.506;2022-09-09T11:30:54;95472.09;;;21.56;59.53
9839;BME280;4958;48.150;11.506;2022-09-09T11:33:37;95476.34;;;21.62;59.75
9839;BME280;4958;48.150;11.506;2022-09-09T11:36:30;95470.06;;;21.63;59.39
9839;BME280;4958;48.150;11.506;2022-09-09T11:39:02;95478.03;;;21.46;59.34
9839;BME280;4958;48.150;11.506;2022-09-09T11:41:34;95469.19;;;21.52;59.26
9839;BME280;4958;48.150;11.506;2022-09-09T11:44:09;95474.22;;;21.32;59.82
9839;BME280;4958;48.150;11.506;2022-09-09T11:46:38;95469.91;;;21.21;59.83
9839;BME280;4958;48.150;11.506;2022-09-09T11:49:26;95466.53;;;21.03;59.50
9839;BME280;4958;48.150;11.506;2022-09-09T11:51:53;95471.13;;;20.91;60.58
9839;BME280;4958;48.150;11.506;2022-09-09T11:54:29;95469.84;;;20.72;61.13
9839;BME280;4958;48.150;11.506;2022-09-09T11:56:56;95478.28;;;20.79;61.48
9839;BME280;4958;48.150;11.506;2022-09-09T11:59:24;95468.38;;;20.81;60.59
9839;BME280;4958;48.150;11.506;2022-09-09T12:01:55;95478.97;;;20.91;60.53
9839;BME280;4958;48.150;11.506;2022-09-09T12:04:37;95477.47;;;20.95;60.71
9839;BME280;4958;48.150;11.506;2022-09-09T12:07:23;95473.13;;;21.06;61.09
9839;BME280;4958;48.150;11.506;2022-09-09T12:09:55;95473.25;;;20.94;62.13
9839;BME280;4958;48.150;11.506;2022-09-09T12:12:26;95470.69;;;20.99;62.09
9839;BME280;4958;48.150;11.506;2022-09-09T12:15:01;95469.59;;;20.95;61.78
9839;BME280;4958;48.150;11.506;2022-09-09T12:17:30;95472.69;;;21.14;62.13
9839;BME280;4958;48.150;11.506;2022-09-09T12:20:04;95472.91;;;21.29;61.24
9839;BME280;4958;48.150;11.506;2022-09-09T12:22:40;95466.69;;;21.35;61.28
9839;BME280;4958;48.150;11.506;2022-09-09T12:25:16;95458.97;;;21.51;61.01
9839;BME280;4958;48.150;11.506;2022-09-09T12:27:49;95466.06;;;21.55;60.64
9839;BME280;4958;48.150;11.506;2022-09-09T12:30:28;95450.06;;;21.52;59.76
9839;BME280;4958;48.150;11.506;2022-09-09T12:33:01;95450.63;;;21.54;60.85
9839;BME280;4958;48.150;11.506;2022-09-09T12:35:29;95450.09;;;21.57;60.35
9839;BME280;4958;48.150;11.506;2022-09-09T12:37:58;95456.34;;;21.83;59.86
9839;BME280;4958;48.150;11.506;2022-09-09T12:40:28;95455.91;;;21.91;61.20
9839;BME280;4958;48.150;11.506;2022-09-09T12:42:54;95451.16;;;21.88;59.44
9839;BME280;4958;48.150;11.506;2022-09-09T12:45:23;95443.59;;;21.96;59.50
9839;BME280;4958;48.150;11.506;2022-09-09T12:47:52;95444.13;;;21.93;58.57
9839;BME280;4958;48.150;11.506;2022-09-09T12:50:21;95443.00;;;21.84;58.78
9839;BME280;4958;48.150;11.506;2022-09-09T12:52:50;95439.03;;;21.82;59.08
9839;BME280;4958;48.150;11.506;2022-09-09T12:55:20;95444.47;;;21.75;59.42
9839;BME280;4958;48.150;11.506;2022-09-09T12:57:51;95432.09;;;21.65;59.61
9839;BME280;4958;48.150;11.506;2022-09-09T13:00:20;95434.47;;;21.67;60.11
9839;BME280;4958;48.150;11.506;2022-09-09T13:02:50;95436.56;;;21.65;59.59
9839;BME280;4958;48.150;11.506;2022-09-09T13:05:20;95435.25;;;21.67;58.96
9839;BME280;4958;48.150;11.506;2022-09-09T13:07:47;95426.00;;;21.55;57.47
9839;BME280;4958;48.150;11.506;2022-09-09T13:10:21;95427.84;;;21.59;57.53
9839;BME280;4958;48.150;11.506;2022-09-09T13:12:49;95432.59;;;21.62;58.39
9839;BME280;4958;48.150;11.506;2022-09-09T13:15:20;95424.53;;;21.69;58.11
9839;BME280;4958;48.150;11.506;2022-09-09T13:17:52;95424.31;;;21.76;58.87
9839;BME280;4958;48.150;11.506;2022-09-09T13:20:21;95413.50;;;21.67;59.47
9839;BME280;4958;48.150;11.506;2022-09-09T13:22:48;95409.50;;;21.59;60.06
9839;BME280;4958;48.150;11.506;2022-09-09T13:25:21;95412.25;;;21.75;59.47
9839;BME280;4958;48.150;11.506;2022-09-09T13:27:57;95405.47;;;21.79;59.55
9839;BME280;4958;48.150;11.506;2022-09-09T13:30:27;95398.25;;;21.96;59.63